sensor_id;sensor_type;location;lat;lon;timestamp;P1;durP1;ratioP1;P2;durP2;ratioP2
18387;SDS011;9320;50.256;19.026;2023-05-10T00:00:16;12.27;;;7.93;;
18387;SDS011;9320;50.256;19.026;2023-05-10T00:02:44;11.67;;;8.03;;
18387;SDS011;9320;50.256;19.026;2023-05-10T00:05:13;14.63;;;8.43;;
18387;SDS011;9320;50.256;19.026;2023-05-10T00:07:41;13.87;;;8.70;;
18387;SDS011;9320;50.256;19.026;2023-05-10T00:10:11;13.70;;;8.83;;
18387;SDS011;9320;50.256;19.026;2023-05-10T00:12:39;13.93;;;7.73;;
18387;SDS011;9320;50.256;19.026;2023-05-10T00:15:10;12.07;;;8.10;;
18387;SDS011;9320;50.256;19.026;2023-05-10T00:17:38;11.30;;;8.10;;
18387;SDS011;9320;50.256;19.026;2023-05-10T00:20:07;12.37;;;7.97;;
18387;SDS011;9320;50.256;19.026;2023-05-10T00:22:35;12.83;;;8.77;;
18387;SDS011;9320;50.256;19.026;2023-05-10T00:25:03;12.97;;;8.80;;
18387;SDS011;9320;50.256;19.026;2023-05-10T00:27:32;11.37;;;8.63;;
18387;SDS011;9320;50.256;19.026;2023-05-10T00:30:00;10.20;;;7.77;;
18387;SDS011;9320;50.256;19.026;2023-05-10T00:32:30;13.40;;;8.33;;
18387;SDS011;9320;50.256;19.026;2023-05-10T00:34:58;11.70;;;8.47;;
18387;SDS011;9320;50.256;19.026;2023-05-10T00:37:26;11.63;;;8.33;;
18387;SDS011;9320;50.256;19.026;2023-05-10T00:39:54;12.83;;;7.67;;
18387;SDS011;9320;50.256;19.026;2023-05-10T00:42:22;10.60;;;8.33;;
18387;SDS011;9320;50.256;19.026;2023-05-10T00:44:50;13.10;;;8.20;;
18387;SDS011;9320;50.256;19.026;2023-05-10T00:47:18;12.83;;;8.70;;
18387;SDS011;9320;50.256;19.026;2023-05-10T00:49:47;12.27;;;8.93;;
18387;SDS011;9320;50.256;19.026;2023-05-10T00:52:15;15.37;;;8.97;;
18387;SDS011;9320;50.256;19.026;2023-05-10T00:54:43;17.30;;;9.00;;
18387;SDS011;9320;50.256;19.026;2023-05-10T00:57:12;16.47;;;9.80;;
18387;SDS011;9320;50.256;19.026;2023-05-10T00:59:40;15.53;;;9.60;;
18387;SDS011;9320;50.256;19.026;2023-05-10T01:02:08;17.33;;;9.40;;
18387;SDS011;9320;50.256;19.026;2023-05-10T01:04:36;15.70;;;10.00;;
18387;SDS011;9320;50.256;19.026;2023-05-10T01:07:07;20.70;;;10.70;;
18387;SDS011;9320;50.256;19.026;2023-05-10T01:09:35;18.83;;;11.03;;
18387;SDS011;9320;50.256;19.026;2023-05-10T01:12:03;19.23;;;10.33;;
18387;SDS011;9320;50.256;19.026;2023-05-10T01:14:33;20.57;;;10.93;;
18387;SDS011;9320;50.256;19.026;2023-05-10T01:17:02;17.00;;;9.80;;
18387;SDS011;9320;50.256;19.026;2023-05-10T01:19:32;15.33;;;9.63;;
18387;SDS011;9320;50.256;19.026;2023-05-10T01:22:06;16.03;;;10.00;;
18387;SDS011;9320;50.256;19.026;2023-05-10T01:27:44;16.13;;;10.37;;
18387;SDS011;9320;50.256;19.026;2023-05-10T01:33:33;14.47;;;9.70;;
18387;SDS011;9320;50.256;19.026;2023-05-10T01:36:06;14.23;;;10.60;;
18387;SDS011;9320;50.256;19.026;2023-05-10T01:38:41;13.40;;;9.93;;
18387;SDS011;9320;50.256;19.026;2023-05-10T01:41:17;15.00;;;9.77;;
18387;SDS011;9320;50.256;19.026;2023-05-10T01:43:54;17.30;;;10.60;;
18387;SDS011;9320;50.256;19.026;2023-05-10T01:46:28;22.17;;;11.60;;
18387;SDS011;9320;50.256;19.026;2023-05-10T01:49:02;16.30;;;10.60;;
18387;SDS011;9320;50.256;19.026;2023-05-10T01:51:34;20.23;;;10.67;;
18387;SDS011;9320;50.256;19.026;2023-05-10T01:54:06;16.80;;;9.93;;
18387;SDS011;9320;50.256;19.026;2023-05-10T01:56:38;16.03;;;11.50;;
18387;SDS011;9320;50.256;19.026;2023-05-10T01:59:08;14.63;;;10.73;;
18387;SDS011;9320;50.256;19.026;2023-05-10T02:01:42;19.37;;;12.80;;
18387;SDS011;9320;50.256;19.026;2023-05-10T02:04:13;20.73;;;12.93;;
18387;SDS011;9320;50.256;19.026;2023-05-10T02:06:45;20.10;;;12.03;;
18387;SDS011;9320;50.256;19.026;2023-05-10T02:09:14;20.17;;;13.80;;
18387;SDS011;9320;50.256;19.026;2023-05-10T02:11:43;21.00;;;13.70;;
18387;SDS011;9320;50.256;19.026;2023-05-10T02:14:12;22.33;;;13.87;;
18387;SDS011;9320;50.256;19.026;2023-05-10T02:16:41;21.90;;;14.13;;
18387;SDS011;9320;50.256;19.026;2023-05-10T02:19:13;24.33;;;13.47;;
18387;SDS011;9320;50.256;19.026;2023-05-10T02:21:42;19.73;;;13.93;;
18387;SDS011;9320;50.256;19.026;2023-05-10T02:24:12;21.00;;;13.77;;
18387;SDS011;9320;50.256;19.026;2023-05-10T02:26:42;20.57;;;12.20;;
18387;SDS011;9320;50.256;19.026;2023-05-10T02:29:12;20.33;;;12.33;;
18387;SDS011;9320;50.256;19.026;2023-05-10T02:31:41;17.90;;;11.90;;
18387;SDS011;9320;50.256;19.026;2023-05-10T02:34:10;17.10;;;11.43;;
18387;SDS011;9320;50.256;19.026;2023-05-10T02:36:40;19.63;;;10.77;;
18387;SDS011;9320;50.256;19.026;2023-05-10T02:39:09;20.90;;;11.13;;
18387;SDS011;9320;50.256;19.026;2023-05-10T02:41:39;16.70;;;10.23;;
18387;SDS011;9320;50.256;19.026;2023-05-10T02:44:09;18.60;;;11.00;;
18387;SDS011;9320;50.256;19.026;2023-05-10T02:46:39;19.13;;;10.80;;
18387;SDS011;9320;50.256;19.026;2023-05-10T02:49:07;18.53;;;10.50;;
18387;SDS011;9320;50.256;19.026;2023-05-10T02:51:37;15.10;;;10.00;;
18387;SDS011;9320;50.256;19.026;2023-05-10T02:54:11;19.93;;;10.00;;
18387;SDS011;9320;50.256;19.026;2023-05-10T02:56:44;14.50;;;9.17;;
18387;SDS011;9320;50.256;19.026;2023-05-10T02:59:17;12.73;;;9.27;;
18387;SDS011;9320;50.256;19.026;2023-05-10T03:01:45;17.10;;;9.17;;
18387;SDS011;9320;50.256;19.026;2023-05-10T03:04:14;18.10;;;9.37;;
18387;SDS011;9320;50.256;19.026;2023-05-10T03:06:43;15.77;;;10.20;;
18387;SDS011;9320;50.256;19.026;2023-05-10T03:09:12;16.03;;;8.87;;
18387;SDS011;9320;50.256;19.026;2023-05-10T03:11:45;16.57;;;9.60;;
18387;SDS011;9320;50.256;19.026;2023-05-10T03:14:25;15.33;;;9.30;;
18387;SDS011;9320;50.256;19.026;2023-05-10T03:17:03;16.67;;;9.50;;
18387;SDS011;9320;50.256;19.026;2023-05-10T03:19:39;12.90;;;9.40;;
18387;SDS011;9320;50.256;19.026;2023-05-10T03:22:14;15.77;;;10.50;;
18387;SDS011;9320;50.256;19.026;2023-05-10T03:24:50;15.50;;;9.10;;
18387;SDS011;9320;50.256;19.026;2023-05-10T03:27:22;12.67;;;9.20;;
18387;SDS011;9320;50.256;19.026;2023-05-10T03:29:52;14.13;;;9.93;;
18387;SDS011;9320;50.256;19.026;2023-05-10T03:32:22;14.13;;;9.27;;
18387;SDS011;9320;50.256;19.026;2023-05-10T03:34:50;14.90;;;9.77;;
18387;SDS011;9320;50.256;19.026;2023-05-10T03:37:19;13.13;;;8.67;;
18387;SDS011;9320;50.256;19.026;2023-05-10T03:39:47;13.70;;;9.40;;
18387;SDS011;9320;50.256;19.026;2023-05-10T03:42:15;17.17;;;10.10;;
18387;SDS011;9320;50.256;19.026;2023-05-10T03:44:44;12.87;;;10.23;;
18387;SDS011;9320;50.256;19.026;2023-05-10T03:47:12;15.27;;;9.13;;
18387;SDS011;9320;50.256;19.026;2023-05-10T03:49:40;17.57;;;10.20;;
18387;SDS011;9320;50.256;19.026;2023-05-10T03:52:08;17.77;;;10.40;;
18387;SDS011;9320;50.256;19.026;2023-05-10T03:54:37;14.30;;;9.67;;
18387;SDS011;9320;50.256;19.026;2023-05-10T03:57:05;17.33;;;9.53;;
18387;SDS011;9320;50.256;19.026;2023-05-10T03:59:33;19.20;;;10.33;;
18387;SDS011;9320;50.256;19.026;2023-05-10T04:02:01;15.30;;;9.87;;
18387;SDS011;9320;50.256;19.026;2023-05-10T04:04:29;16.03;;;10.00;;
18387;SDS011;9320;50.256;19.026;2023-05-10T04:06:57;16.93;;;10.80;;
18387;SDS011;9320;50.256;19.026;2023-05-10T04:09:25;15.17;;;10.70;;
18387;SDS011;9320;50.256;19.026;2023-05-10T04:11:55;17.10;;;9.80;;
18387;SDS011;9320;50.256;19.026;2023-05-10T04:14:23;18.57;;;9.50;;
18387;SDS011;9320;50.256;19.026;2023-05-10T04:16:51;19.27;;;10.73;;
18387;SDS011;9320;50.256;19.026;2023-05-10T04:19:19;17.20;;;10.73;;
18387;SDS011;9320;50.256;19.026;2023-05-10T04:21:47;19.70;;;9.63;;
18387;SDS011;9320;50.256;19.026;2023-05-10T04:24:15;18.70;;;10.93;;
18387;SDS011;9320;50.256;19.026;2023-05-10T04:26:43;17.13;;;10.57;;
18387;SDS011;9320;50.256;19.026;2023-05-10T04:29:13;18.37;;;10.73;;
18387;SDS011;9320;50.256;19.026;2023-05-10T04:31:41;19.47;;;9.93;;
18387;SDS011;9320;50.256;19.026;2023-05-10T04:34:09;14.50;;;10.63;;
18387;SDS011;9320;50.256;19.026;2023-05-10T04:36:37;16.67;;;10.93;;
18387;SDS011;9320;50.256;19.026;2023-05-10T04:39:05;21.63;;;10.40;;
18387;SDS011;9320;50.256;19.026;2023-05-10T04:41:33;15.13;;;11.00;;
18387;SDS011;9320;50.256;19.026;2023-05-10T04:44:01;13.70;;;9.90;;
18387;SDS011;9320;50.256;19.026;2023-05-10T04:46:30;17.23;;;10.40;;
18387;SDS011;9320;50.256;19.026;2023-05-10T04:48:58;20.97;;;10.43;;
18387;SDS011;9320;50.256;19.026;2023-05-10T04:51:27;20.57;;;11.07;;
18387;SDS011;9320;50.256;19.026;2023-05-10T04:53:55;15.73;;;10.20;;
18387;SDS011;9320;50.256;19.026;2023-05-10T04:56:31;15.63;;;10.80;;
18387;SDS011;9320;50.256;19.026;2023-05-10T04:59:00;17.27;;;10.47;;
18387;SDS011;9320;50.256;19.026;2023-05-10T05:01:28;19.23;;;10.40;;
18387;SDS011;9320;50.256;19.026;2023-05-10T05:03:57;25.47;;;10.07;;
18387;SDS011;9320;50.256;19.026;2023-05-10T05:06:25;23.33;;;11.23;;
18387;SDS011;9320;50.256;19.026;2023-05-10T05:08:53;13.40;;;10.30;;
18387;SDS011;9320;50.256;19.026;2023-05-10T05:11:22;16.10;;;10.33;;
18387;SDS011;9320;50.256;19.026;2023-05-10T05:13:50;20.67;;;10.47;;
18387;SDS011;9320;50.256;19.026;2023-05-10T05:16:18;18.60;;;10.73;;
18387;SDS011;9320;50.256;19.026;2023-05-10T05:18:46;16.10;;;9.80;;
18387;SDS011;9320;50.256;19.026;2023-05-10T05:21:15;15.97;;;9.67;;
18387;SDS011;9320;50.256;19.026;2023-05-10T05:23:44;16.77;;;9.70;;
18387;SDS011;9320;50.256;19.026;2023-05-10T05:26:12;18.80;;;9.43;;
18387;SDS011;9320;50.256;19.026;2023-05-10T05:28:41;16.13;;;9.17;;
18387;SDS011;9320;50.256;19.026;2023-05-10T05:31:09;19.10;;;9.80;;
18387;SDS011;9320;50.256;19.026;2023-05-10T05:33:37;15.43;;;8.57;;
18387;SDS011;9320;50.256;19.026;2023-05-10T05:36:06;14.83;;;8.93;;
18387;SDS011;9320;50.256;19.026;2023-05-10T05:38:35;12.73;;;8.43;;
18387;SDS011;9320;50.256;19.026;2023-05-10T05:41:03;17.03;;;8.70;;
18387;SDS011;9320;50.256;19.026;2023-05-10T05:43:31;19.07;;;8.00;;
18387;SDS011;9320;50.256;19.026;2023-05-10T05:46:03;13.53;;;8.90;;
18387;SDS011;9320;50.256;19.026;2023-05-10T05:48:31;14.33;;;8.57;;
18387;SDS011;9320;50.256;19.026;2023-05-10T05:50:59;13.33;;;8.23;;
18387;SDS011;9320;50.256;19.026;2023-05-10T05:53:28;18.90;;;8.70;;
18387;SDS011;9320;50.256;19.026;2023-05-10T05:55:58;11.83;;;8.10;;
18387;SDS011;9320;50.256;19.026;2023-05-10T05:58:26;11.50;;;7.97;;
18387;SDS011;9320;50.256;19.026;2023-05-10T06:00:54;13.80;;;8.40;;
18387;SDS011;9320;50.256;19.026;2023-05-10T06:03:23;13.67;;;7.97;;
18387;SDS011;9320;50.256;19.026;2023-05-10T06:05:52;16.83;;;7.43;;
18387;SDS011;9320;50.256;19.026;2023-05-10T06:08:20;11.60;;;7.77;;
18387;SDS011;9320;50.256;19.026;2023-05-10T06:10:48;20.87;;;8.10;;
18387;SDS011;9320;50.256;19.026;2023-05-10T06:13:18;18.33;;;8.53;;
18387;SDS011;9320;50.256;19.026;2023-05-10T06:15:46;13.07;;;7.63;;
18387;SDS011;9320;50.256;19.026;2023-05-10T06:18:14;17.77;;;8.43;;
18387;SDS011;9320;50.256;19.026;2023-05-10T06:20:42;9.13;;;7.63;;
18387;SDS011;9320;50.256;19.026;2023-05-10T06:23:10;11.20;;;7.53;;
18387;SDS011;9320;50.256;19.026;2023-05-10T06:25:38;11.20;;;7.57;;
18387;SDS011;9320;50.256;19.026;2023-05-10T06:28:06;12.07;;;7.00;;
18387;SDS011;9320;50.256;19.026;2023-05-10T06:30:36;12.67;;;6.93;;
18387;SDS011;9320;50.256;19.026;2023-05-10T06:33:04;8.87;;;7.03;;
18387;SDS011;9320;50.256;19.026;2023-05-10T06:35:32;11.33;;;7.27;;
18387;SDS011;9320;50.256;19.026;2023-05-10T06:38:00;15.97;;;7.50;;
18387;SDS011;9320;50.256;19.026;2023-05-10T06:40:28;11.83;;;7.27;;
18387;SDS011;9320;50.256;19.026;2023-05-10T06:42:56;13.03;;;7.03;;
18387;SDS011;9320;50.256;19.026;2023-05-10T06:45:24;9.93;;;6.17;;
18387;SDS011;9320;50.256;19.026;2023-05-10T06:47:54;11.33;;;6.83;;
18387;SDS011;9320;50.256;19.026;2023-05-10T06:50:22;9.00;;;6.80;;
18387;SDS011;9320;50.256;19.026;2023-05-10T06:52:50;9.20;;;6.20;;
18387;SDS011;9320;50.256;19.026;2023-05-10T06:55:18;10.37;;;6.50;;
18387;SDS011;9320;50.256;19.026;2023-05-10T06:57:46;6.93;;;6.03;;
18387;SDS011;9320;50.256;19.026;2023-05-10T07:00:15;9.07;;;5.90;;
18387;SDS011;9320;50.256;19.026;2023-05-10T07:02:44;8.67;;;6.97;;
18387;SDS011;9320;50.256;19.026;2023-05-10T07:05:14;8.83;;;6.80;;
18387;SDS011;9320;50.256;19.026;2023-05-10T07:07:42;9.43;;;6.63;;
18387;SDS011;9320;50.256;19.026;2023-05-10T07:10:10;9.90;;;6.47;;
18387;SDS011;9320;50.256;19.026;2023-05-10T07:12:39;9.40;;;6.93;;
18387;SDS011;9320;50.256;19.026;2023-05-10T07:15:08;12.40;;;6.53;;
18387;SDS011;9320;50.256;19.026;2023-05-10T07:17:37;6.70;;;6.00;;
18387;SDS011;9320;50.256;19.026;2023-05-10T07:20:07;8.60;;;6.00;;
18387;SDS011;9320;50.256;19.026;2023-05-10T07:22:37;9.10;;;6.20;;
18387;SDS011;9320;50.256;19.026;2023-05-10T07:25:06;7.77;;;6.13;;
18387;SDS011;9320;50.256;19.026;2023-05-10T07:27:34;10.37;;;6.20;;
18387;SDS011;9320;50.256;19.026;2023-05-10T07:30:02;9.20;;;6.57;;
18387;SDS011;9320;50.256;19.026;2023-05-10T07:32:31;8.07;;;5.70;;
18387;SDS011;9320;50.256;19.026;2023-05-10T07:34:59;7.63;;;6.40;;
18387;SDS011;9320;50.256;19.026;2023-05-10T07:37:27;12.60;;;6.50;;
18387;SDS011;9320;50.256;19.026;2023-05-10T07:39:57;7.87;;;6.20;;
18387;SDS011;9320;50.256;19.026;2023-05-10T07:42:25;8.55;;;5.95;;
18387;SDS011;9320;50.256;19.026;2023-05-10T07:44:53;13.20;;;6.35;;
18387;SDS011;9320;50.256;19.026;2023-05-10T07:47:21;14.80;;;6.90;;
18387;SDS011;9320;50.256;19.026;2023-05-10T07:49:49;13.15;;;6.53;;
18387;SDS011;9320;50.256;19.026;2023-05-10T07:52:17;8.07;;;6.05;;
18387;SDS011;9320;50.256;19.026;2023-05-10T07:54:47;8.55;;;5.95;;
18387;SDS011;9320;50.256;19.026;2023-05-10T07:57:17;10.25;;;5.80;;
18387;SDS011;9320;50.256;19.026;2023-05-10T07:59:45;9.75;;;5.95;;
18387;SDS011;9320;50.256;19.026;2023-05-10T08:02:13;12.45;;;5.80;;
18387;SDS011;9320;50.256;19.026;2023-05-10T08:04:41;7.07;;;5.20;;
18387;SDS011;9320;50.256;19.026;2023-05-10T08:07:10;9.85;;;5.57;;
18387;SDS011;9320;50.256;19.026;2023-05-10T08:09:38;9.68;;;5.65;;
18387;SDS011;9320;50.256;19.026;2023-05-10T08:12:06;6.35;;;5.53;;
18387;SDS011;9320;50.256;19.026;2023-05-10T08:14:35;7.28;;;5.07;;
18387;SDS011;9320;50.256;19.026;2023-05-10T08:17:04;5.82;;;5.05;;
18387;SDS011;9320;50.256;19.026;2023-05-10T08:19:32;9.68;;;5.40;;
18387;SDS011;9320;50.256;19.026;2023-05-10T08:22:00;8.90;;;4.72;;
18387;SDS011;9320;50.256;19.026;2023-05-10T08:24:28;7.40;;;4.63;;
18387;SDS011;9320;50.256;19.026;2023-05-10T08:26:56;5.97;;;4.95;;
18387;SDS011;9320;50.256;19.026;2023-05-10T08:29:24;6.40;;;4.32;;
18387;SDS011;9320;50.256;19.026;2023-05-10T08:31:57;11.90;;;4.70;;
18387;SDS011;9320;50.256;19.026;2023-05-10T08:34:25;4.90;;;4.25;;
18387;SDS011;9320;50.256;19.026;2023-05-10T08:36:53;4.57;;;4.15;;
18387;SDS011;9320;50.256;19.026;2023-05-10T08:39:21;4.75;;;4.20;;
18387;SDS011;9320;50.256;19.026;2023-05-10T08:41:58;5.22;;;4.30;;
18387;SDS011;9320;50.256;19.026;2023-05-10T08:44:31;5.45;;;4.15;;
18387;SDS011;9320;50.256;19.026;2023-05-10T08:47:04;8.40;;;4.72;;
18387;SDS011;9320;50.256;19.026;2023-05-10T08:49:34;4.80;;;4.40;;
18387;SDS011;9320;50.256;19.026;2023-05-10T08:52:03;6.13;;;4.53;;
18387;SDS011;9320;50.256;19.026;2023-05-10T08:54:32;7.57;;;4.40;;
18387;SDS011;9320;50.256;19.026;2023-05-10T08:57:00;4.80;;;4.28;;
18387;SDS011;9320;50.256;19.026;2023-05-10T08:59:29;6.85;;;4.78;;
18387;SDS011;9320;50.256;19.026;2023-05-10T09:01:59;6.97;;;4.43;;
18387;SDS011;9320;50.256;19.026;2023-05-10T09:04:29;6.60;;;4.57;;
18387;SDS011;9320;50.256;19.026;2023-05-10T09:06:58;5.43;;;4.05;;
18387;SDS011;9320;50.256;19.026;2023-05-10T09:09:26;4.85;;;4.32;;
18387;SDS011;9320;50.256;19.026;2023-05-10T09:11:55;7.38;;;4.43;;
18387;SDS011;9320;50.256;19.026;2023-05-10T09:14:23;5.57;;;4.28;;
18387;SDS011;9320;50.256;19.026;2023-05-10T09:16:52;4.97;;;4.07;;
18387;SDS011;9320;50.256;19.026;2023-05-10T09:19:21;6.97;;;4.00;;
18387;SDS011;9320;50.256;19.026;2023-05-10T09:21:50;9.35;;;4.20;;
18387;SDS011;9320;50.256;19.026;2023-05-10T09:24:18;6.03;;;3.80;;
18387;SDS011;9320;50.256;19.026;2023-05-10T09:26:47;5.00;;;4.50;;
18387;SDS011;9320;50.256;19.026;2023-05-10T09:29:15;5.03;;;3.90;;
18387;SDS011;9320;50.256;19.026;2023-05-10T09:31:44;4.40;;;4.00;;
18387;SDS011;9320;50.256;19.026;2023-05-10T09:34:17;4.40;;;3.85;;
18387;SDS011;9320;50.256;19.026;2023-05-10T09:36:52;4.45;;;4.00;;
18387;SDS011;9320;50.256;19.026;2023-05-10T09:39:20;6.45;;;4.20;;
18387;SDS011;9320;50.256;19.026;2023-05-10T09:41:57;8.65;;;4.20;;
18387;SDS011;9320;50.256;19.026;2023-05-10T09:44:26;7.32;;;3.97;;
18387;SDS011;9320;50.256;19.026;2023-05-10T09:46:54;6.47;;;3.90;;
18387;SDS011;9320;50.256;19.026;2023-05-10T09:49:22;4.40;;;4.00;;
18387;SDS011;9320;50.256;19.026;2023-05-10T09:52:01;7.63;;;4.30;;
18387;SDS011;9320;50.256;19.026;2023-05-10T09:54:31;7.72;;;4.10;;
18387;SDS011;9320;50.256;19.026;2023-05-10T09:56:59;6.75;;;4.15;;
18387;SDS011;9320;50.256;19.026;2023-05-10T09:59:28;5.25;;;4.30;;
18387;SDS011;9320;50.256;19.026;2023-05-10T10:01:56;4.57;;;3.75;;
18387;SDS011;9320;50.256;19.026;2023-05-10T10:04:27;5.15;;;4.03;;
18387;SDS011;9320;50.256;19.026;2023-05-10T10:06:58;6.07;;;3.83;;
18387;SDS011;9320;50.256;19.026;2023-05-10T10:09:29;4.40;;;4.00;;
18387;SDS011;9320;50.256;19.026;2023-05-10T10:11:57;5.78;;;4.10;;
18387;SDS011;9320;50.256;19.026;2023-05-10T10:14:27;7.43;;;3.63;;
18387;SDS011;9320;50.256;19.026;2023-05-10T10:16:55;5.35;;;4.10;;
18387;SDS011;9320;50.256;19.026;2023-05-10T10:19:33;9.48;;;3.80;;
18387;SDS011;9320;50.256;19.026;2023-05-10T10:22:03;5.60;;;4.03;;
18387;SDS011;9320;50.256;19.026;2023-05-10T10:24:33;4.30;;;3.90;;
18387;SDS011;9320;50.256;19.026;2023-05-10T10:27:04;5.93;;;4.03;;
18387;SDS011;9320;50.256;19.026;2023-05-10T10:29:44;10.25;;;3.70;;
18387;SDS011;9320;50.256;19.026;2023-05-10T10:32:21;4.60;;;4.03;;
18387;SDS011;9320;50.256;19.026;2023-05-10T10:34:55;8.50;;;4.10;;
18387;SDS011;9320;50.256;19.026;2023-05-10T10:37:24;6.55;;;3.90;;
18387;SDS011;9320;50.256;19.026;2023-05-10T10:40:24;4.18;;;3.78;;
18387;SDS011;9320;50.256;19.026;2023-05-10T10:42:53;5.60;;;3.90;;
18387;SDS011;9320;50.256;19.026;2023-05-10T10:45:23;4.88;;;4.40;;
18387;SDS011;9320;50.256;19.026;2023-05-10T10:47:53;8.73;;;4.63;;
18387;SDS011;9320;50.256;19.026;2023-05-10T10:50:43;9.30;;;4.50;;
18387;SDS011;9320;50.256;19.026;2023-05-10T10:53:12;7.95;;;4.35;;
18387;SDS011;9320;50.256;19.026;2023-05-10T10:55:48;5.60;;;4.50;;
18387;SDS011;9320;50.256;19.026;2023-05-10T10:58:28;7.00;;;4.72;;
18387;SDS011;9320;50.256;19.026;2023-05-10T11:01:10;6.75;;;4.78;;
18387;SDS011;9320;50.256;19.026;2023-05-10T11:03:40;7.53;;;4.97;;
18387;SDS011;9320;50.256;19.026;2023-05-10T11:06:08;9.70;;;5.22;;
18387;SDS011;9320;50.256;19.026;2023-05-10T11:08:41;5.10;;;4.63;;
18387;SDS011;9320;50.256;19.026;2023-05-10T11:11:17;9.00;;;4.90;;
18387;SDS011;9320;50.256;19.026;2023-05-10T11:13:45;9.27;;;5.35;;
18387;SDS011;9320;50.256;19.026;2023-05-10T11:16:17;7.30;;;5.00;;
18387;SDS011;9320;50.256;19.026;2023-05-10T11:18:53;7.45;;;5.00;;
18387;SDS011;9320;50.256;19.026;2023-05-10T11:21:24;6.07;;;4.90;;
18387;SDS011;9320;50.256;19.026;2023-05-10T11:23:53;4.75;;;4.20;;
18387;SDS011;9320;50.256;19.026;2023-05-10T11:26:25;5.15;;;4.55;;
18387;SDS011;9320;50.256;19.026;2023-05-10T11:28:58;8.30;;;4.78;;
18387;SDS011;9320;50.256;19.026;2023-05-10T11:31:27;6.45;;;4.70;;
18387;SDS011;9320;50.256;19.026;2023-05-10T11:33:56;5.95;;;4.95;;
18387;SDS011;9320;50.256;19.026;2023-05-10T11:36:26;5.40;;;4.70;;
18387;SDS011;9320;50.256;19.026;2023-05-10T11:38:55;7.15;;;5.10;;
18387;SDS011;9320;50.256;19.026;2023-05-10T11:41:25;6.40;;;5.30;;
18387;SDS011;9320;50.256;19.026;2023-05-10T11:43:56;6.85;;;4.82;;
18387;SDS011;9320;50.256;19.026;2023-05-10T11:46:25;6.18;;;4.90;;
18387;SDS011;9320;50.256;19.026;2023-05-10T11:48:55;10.38;;;6.15;;
18387;SDS011;9320;50.256;19.026;2023-05-10T11:51:27;8.45;;;4.90;;
18387;SDS011;9320;50.256;19.026;2023-05-10T11:53:55;5.13;;;4.60;;
18387;SDS011;9320;50.256;19.026;2023-05-10T11:56:25;9.00;;;4.90;;
18387;SDS011;9320;50.256;19.026;2023-05-10T11:58:53;5.75;;;4.80;;
18387;SDS011;9320;50.256;19.026;2023-05-10T12:01:23;10.85;;;5.05;;
18387;SDS011;9320;50.256;19.026;2023-05-10T12:03:52;6.30;;;4.80;;
18387;SDS011;9320;50.256;19.026;2023-05-10T12:06:26;5.45;;;4.88;;
18387;SDS011;9320;50.256;19.026;2023-05-10T12:08:54;7.35;;;4.78;;
18387;SDS011;9320;50.256;19.026;2023-05-10T12:11:25;5.57;;;4.97;;
18387;SDS011;9320;50.256;19.026;2023-05-10T12:13:55;5.82;;;4.88;;
18387;SDS011;9320;50.256;19.026;2023-05-10T12:16:23;5.45;;;4.80;;
18387;SDS011;9320;50.256;19.026;2023-05-10T12:18:56;12.20;;;4.90;;
18387;SDS011;9320;50.256;19.026;2023-05-10T12:21:25;6.88;;;4.93;;
18387;SDS011;9320;50.256;19.026;2023-05-10T12:23:58;7.78;;;5.55;;
18387;SDS011;9320;50.256;19.026;2023-05-10T12:26:29;5.53;;;5.00;;
18387;SDS011;9320;50.256;19.026;2023-05-10T12:29:11;6.47;;;4.93;;
18387;SDS011;9320;50.256;19.026;2023-05-10T12:31:49;6.97;;;5.10;;
18387;SDS011;9320;50.256;19.026;2023-05-10T12:34:24;5.68;;;4.80;;
18387;SDS011;9320;50.256;19.026;2023-05-10T12:36:54;8.68;;;5.28;;
18387;SDS011;9320;50.256;19.026;2023-05-10T12:39:23;7.15;;;4.88;;
18387;SDS011;9320;50.256;19.026;2023-05-10T12:41:52;6.53;;;5.28;;
18387;SDS011;9320;50.256;19.026;2023-05-10T12:44:20;6.10;;;4.78;;
18387;SDS011;9320;50.256;19.026;2023-05-10T12:46:48;5.53;;;4.85;;
18387;SDS011;9320;50.256;19.026;2023-05-10T12:49:16;7.20;;;4.75;;
18387;SDS011;9320;50.256;19.026;2023-05-10T12:51:45;6.20;;;4.70;;
18387;SDS011;9320;50.256;19.026;2023-05-10T12:54:13;6.80;;;5.05;;
18387;SDS011;9320;50.256;19.026;2023-05-10T12:56:41;7.05;;;5.22;;
18387;SDS011;9320;50.256;19.026;2023-05-10T12:59:11;9.50;;;5.07;;
18387;SDS011;9320;50.256;19.026;2023-05-10T13:01:39;5.72;;;5.13;;
18387;SDS011;9320;50.256;19.026;2023-05-10T13:04:08;5.60;;;5.10;;
18387;SDS011;9320;50.256;19.026;2023-05-10T13:06:36;6.00;;;5.00;;
18387;SDS011;9320;50.256;19.026;2023-05-10T13:09:04;5.85;;;4.70;;
18387;SDS011;9320;50.256;19.026;2023-05-10T13:11:32;5.40;;;4.90;;
18387;SDS011;9320;50.256;19.026;2023-05-10T13:14:00;6.57;;;4.80;;
18387;SDS011;9320;50.256;19.026;2023-05-10T13:16:30;5.13;;;4.72;;
18387;SDS011;9320;50.256;19.026;2023-05-10T13:18:59;5.72;;;4.60;;
18387;SDS011;9320;50.256;19.026;2023-05-10T13:21:27;5.93;;;4.90;;
18387;SDS011;9320;50.256;19.026;2023-05-10T13:23:55;7.65;;;5.40;;
18387;SDS011;9320;50.256;19.026;2023-05-10T13:26:24;8.88;;;4.97;;
18387;SDS011;9320;50.256;19.026;2023-05-10T13:28:52;10.38;;;5.30;;
18387;SDS011;9320;50.256;19.026;2023-05-10T13:31:21;9.00;;;4.97;;
18387;SDS011;9320;50.256;19.026;2023-05-10T13:33:51;6.60;;;5.00;;
18387;SDS011;9320;50.256;19.026;2023-05-10T13:36:19;8.40;;;4.88;;
18387;SDS011;9320;50.256;19.026;2023-05-10T13:38:47;5.45;;;4.95;;
18387;SDS011;9320;50.256;19.026;2023-05-10T13:41:15;6.60;;;4.65;;
18387;SDS011;9320;50.256;19.026;2023-05-10T13:43:43;7.22;;;5.03;;
18387;SDS011;9320;50.256;19.026;2023-05-10T13:46:11;5.40;;;4.85;;
18387;SDS011;9320;50.256;19.026;2023-05-10T13:48:39;8.02;;;4.82;;
18387;SDS011;9320;50.256;19.026;2023-05-10T13:51:09;7.38;;;4.70;;
18387;SDS011;9320;50.256;19.026;2023-05-10T13:53:37;5.95;;;4.70;;
18387;SDS011;9320;50.256;19.026;2023-05-10T13:56:05;6.55;;;4.70;;
18387;SDS011;9320;50.256;19.026;2023-05-10T13:58:33;5.38;;;4.57;;
18387;SDS011;9320;50.256;19.026;2023-05-10T14:01:02;6.00;;;5.15;;
18387;SDS011;9320;50.256;19.026;2023-05-10T14:03:31;6.95;;;5.30;;
18387;SDS011;9320;50.256;19.026;2023-05-10T14:05:59;5.88;;;5.18;;
18387;SDS011;9320;50.256;19.026;2023-05-10T14:08:28;6.82;;;5.03;;
18387;SDS011;9320;50.256;19.026;2023-05-10T14:10:56;7.13;;;4.40;;
18387;SDS011;9320;50.256;19.026;2023-05-10T14:13:24;5.25;;;4.75;;
18387;SDS011;9320;50.256;19.026;2023-05-10T14:15:53;5.47;;;4.85;;
18387;SDS011;9320;50.256;19.026;2023-05-10T14:18:21;6.97;;;5.20;;
18387;SDS011;9320;50.256;19.026;2023-05-10T14:20:49;8.20;;;5.30;;
18387;SDS011;9320;50.256;19.026;2023-05-10T14:23:18;10.02;;;5.22;;
18387;SDS011;9320;50.256;19.026;2023-05-10T14:25:51;6.00;;;4.90;;
18387;SDS011;9320;50.256;19.026;2023-05-10T14:28:19;5.53;;;4.97;;
18387;SDS011;9320;50.256;19.026;2023-05-10T14:30:49;6.80;;;5.60;;
18387;SDS011;9320;50.256;19.026;2023-05-10T14:33:17;5.82;;;5.22;;
18387;SDS011;9320;50.256;19.026;2023-05-10T14:35:45;6.03;;;4.70;;
18387;SDS011;9320;50.256;19.026;2023-05-10T14:38:14;6.55;;;4.85;;
18387;SDS011;9320;50.256;19.026;2023-05-10T14:40:42;6.47;;;5.05;;
18387;SDS011;9320;50.256;19.026;2023-05-10T14:43:11;6.53;;;5.00;;
18387;SDS011;9320;50.256;19.026;2023-05-10T14:45:39;5.90;;;5.30;;
18387;SDS011;9320;50.256;19.026;2023-05-10T14:48:07;6.72;;;4.78;;
18387;SDS011;9320;50.256;19.026;2023-05-10T14:50:38;5.55;;;5.00;;
18387;SDS011;9320;50.256;19.026;2023-05-10T14:53:06;5.75;;;4.95;;
18387;SDS011;9320;50.256;19.026;2023-05-10T14:55:34;6.45;;;5.20;;
18387;SDS011;9320;50.256;19.026;2023-05-10T14:58:03;5.60;;;5.10;;